Time;durP1;ratioP1;P1;durP2;ratioP2;P2;SDS_P1;SDS_P2;PMS_P1;PMS_P2;Temp;Humidity;BMP_temperature;BMP_pressure;BME280_temperature;BME280_humidity;BME280_pressure;Samples;Min_cycle;Max_cycle;Signal;HPM_P1;HPM_P2
2020/12/08 00:00:20;;;;;;;11.17;6.63;;;5.60;99.90;;;;;;4916072;29;20239;-71
2020/12/08 00:02:46;;;;;;;13.73;6.80;;;5.60;99.90;;;;;;4919414;29;20315;-70
2020/12/08 00:05:12;;;;;;;12.17;7.87;;;5.60;99.90;;;;;;4915284;29;20471;-70
2020/12/08 00:07:38;;;;;;;11.47;6.63;;;5.60;99.90;;;;;;4916552;29;20459;-70
2020/12/08 00:10:04;;;;;;;9.33;6.13;;;5.60;99.90;;;;;;4912868;28;20468;-69
2020/12/08 00:12:30;;;;;;;15.83;7.20;;;5.60;99.90;;;;;;4934146;29;20224;-71
2020/12/08 00:14:56;;;;;;;11.30;6.73;;;5.60;99.90;;;;;;4920877;28;20595;-70
2020/12/08 00:17:22;;;;;;;12.20;6.60;;;5.60;99.90;;;;;;4910972;29;20315;-69
2020/12/08 00:19:48;;;;;;;11.37;6.70;;;5.60;99.90;;;;;;4915367;29;20548;-70
2020/12/08 00:22:14;;;;;;;8.50;6.30;;;5.50;99.90;;;;;;4916688;29;20236;-70
2020/12/08 00:24:40;;;;;;;10.07;7.27;;;5.60;99.90;;;;;;4913124;29;20467;-70
2020/12/08 00:27:10;;;;;;;13.93;7.73;;;5.60;99.90;;;;;;4903926;29;20230;-70
2020/12/08 00:29:39;;;;;;;13.47;7.77;;;5.60;99.90;;;;;;4955930;28;20491;-71
2020/12/08 00:32:08;;;;;;;12.20;7.37;;;5.50;99.90;;;;;;4933874;29;20466;-70
2020/12/08 00:34:37;;;;;;;13.50;7.70;;;5.50;99.90;;;;;;4917987;29;20464;-70
2020/12/08 00:37:04;;;;;;;12.00;7.83;;;5.50;99.90;;;;;;4904892;28;20459;-71
2020/12/08 00:39:30;;;;;;;15.00;7.23;;;5.50;99.90;;;;;;4919327;28;20455;-70
2020/12/08 00:41:56;;;;;;;8.73;5.90;;;5.50;99.90;;;;;;4928825;28;20469;-70
2020/12/08 00:44:21;;;;;;;9.60;6.60;;;5.50;99.90;;;;;;4919795;28;20458;-70
2020/12/08 00:46:51;;;;;;;12.27;7.60;;;5.50;99.90;;;;;;4913442;28;20605;-71
2020/12/08 00:49:19;;;;;;;13.00;7.53;;;5.50;99.90;;;;;;4928503;28;20234;-70
2020/12/08 00:52:00;;;;;;;10.07;6.47;;;5.50;99.90;;;;;;4928074;29;20474;-70
2020/12/08 00:54:28;;;;;;;11.27;6.60;;;5.50;99.90;;;;;;4915910;29;20467;-70
2020/12/08 00:56:56;;;;;;;11.67;6.97;;;5.40;99.90;;;;;;4902986;29;20456;-70
2020/12/08 00:59:22;;;;;;;14.00;7.70;;;5.40;99.90;;;;;;4908039;28;20243;-70
2020/12/08 01:01:49;;;;;;;11.37;6.40;;;5.40;99.90;;;;;;4922215;28;20566;-70
2020/12/08 01:04:16;;;;;;;12.87;7.13;;;5.40;99.90;;;;;;4927410;29;20900;-70
2020/12/08 01:06:42;;;;;;;10.00;6.47;;;5.40;99.90;;;;;;4910056;29;20470;-70
2020/12/08 01:09:09;;;;;;;13.30;7.40;;;5.30;99.90;;;;;;4915250;29;20464;-70
2020/12/08 01:11:45;;;;;;;11.07;6.63;;;5.40;99.90;;;;;;4931953;29;20467;-71
2020/12/08 01:14:16;;;;;;;13.00;7.70;;;5.30;99.90;;;;;;4904725;29;20224;-70
2020/12/08 01:16:42;;;;;;;10.27;6.40;;;5.30;99.90;;;;;;4919312;29;20458;-71
2020/12/08 01:19:08;;;;;;;11.00;6.93;;;5.30;99.90;;;;;;4902089;29;20443;-69
2020/12/08 01:21:34;;;;;;;12.80;9.27;;;5.30;99.90;;;;;;4915222;29;20239;-70
2020/12/08 01:24:00;;;;;;;17.70;7.23;;;5.30;99.90;;;;;;4902782;29;20243;-70
2020/12/08 01:26:27;;;;;;;12.13;6.13;;;5.30;99.90;;;;;;4918790;29;20283;-71
2020/12/08 01:28:54;;;;;;;10.77;6.67;;;5.30;99.90;;;;;;4899710;29;20253;-70
2020/12/08 01:31:34;;;;;;;12.83;7.23;;;5.30;99.90;;;;;;4907690;29;20460;-68
2020/12/08 01:34:09;;;;;;;13.73;7.33;;;5.30;99.90;;;;;;4922532;28;20459;-70
2020/12/08 01:36:36;;;;;;;11.90;7.00;;;5.30;99.90;;;;;;4903654;29;20480;-70
2020/12/08 01:39:04;;;;;;;11.90;6.50;;;5.30;99.90;;;;;;4933593;29;20466;-68
2020/12/08 01:41:30;;;;;;;10.87;5.90;;;5.30;99.90;;;;;;4924603;28;20486;-72
2020/12/08 01:43:56;;;;;;;13.33;5.97;;;5.30;99.90;;;;;;4929423;28;20478;-70
2020/12/08 01:46:25;;;;;;;15.70;6.83;;;5.30;99.90;;;;;;4894028;28;20223;-71
2020/12/08 01:48:54;;;;;;;11.67;6.07;;;5.30;99.90;;;;;;4932491;28;21007;-71
2020/12/08 01:51:22;;;;;;;9.03;5.30;;;5.30;99.90;;;;;;4931264;29;20518;-70
2020/12/08 01:53:50;;;;;;;10.27;6.30;;;5.20;99.90;;;;;;4931243;28;20454;-70
2020/12/08 01:56:23;;;;;;;11.77;6.63;;;5.20;99.90;;;;;;4932401;29;20459;-70
2020/12/08 01:58:54;;;;;;;10.87;6.13;;;5.30;99.90;;;;;;4919835;29;20987;-70
2020/12/08 02:01:20;;;;;;;11.93;6.70;;;5.30;99.90;;;;;;4892133;28;20494;-70
2020/12/08 02:03:49;;;;;;;10.60;5.27;;;5.20;99.90;;;;;;4900884;29;20484;-69
2020/12/08 02:06:15;;;;;;;11.07;5.50;;;5.20;99.90;;;;;;4936823;28;20225;-70
2020/12/08 02:08:40;;;;;;;12.93;6.43;;;5.30;99.90;;;;;;4939689;28;20833;-70
2020/12/08 02:11:13;;;;;;;7.00;4.93;;;5.20;99.90;;;;;;4914461;28;20220;-71
2020/12/08 02:13:40;;;;;;;12.17;6.13;;;5.20;99.90;;;;;;4902671;29;20452;-70
2020/12/08 02:16:07;;;;;;;9.23;4.70;;;5.20;99.90;;;;;;4918523;28;20482;-73
2020/12/08 02:18:32;;;;;;;12.90;5.97;;;5.20;99.90;;;;;;4930649;29;20475;-70
2020/12/08 02:21:03;;;;;;;7.03;4.80;;;5.20;99.90;;;;;;4921572;29;20224;-70
2020/12/08 02:23:34;;;;;;;10.10;6.20;;;5.20;99.90;;;;;;4929052;28;20219;-71
2020/12/08 02:26:03;;;;;;;8.80;4.57;;;5.20;99.90;;;;;;4929258;29;20447;-70
2020/12/08 02:28:31;;;;;;;8.07;4.70;;;5.20;99.90;;;;;;4918200;29;20208;-71
2020/12/08 02:30:59;;;;;;;8.13;5.23;;;5.20;99.90;;;;;;4913225;28;20493;-70
2020/12/08 02:33:28;;;;;;;10.50;6.80;;;5.20;99.90;;;;;;4916651;28;20479;-71
2020/12/08 02:35:56;;;;;;;12.67;6.10;;;5.20;99.90;;;;;;4937355;29;20948;-71
2020/12/08 02:38:24;;;;;;;11.50;5.57;;;5.20;99.90;;;;;;4922142;29;20454;-70
2020/12/08 02:40:51;;;;;;;8.93;5.97;;;5.20;99.90;;;;;;4924093;28;20748;-70
2020/12/08 02:43:16;;;;;;;10.70;6.80;;;5.10;99.90;;;;;;4938284;28;20501;-71
2020/12/08 02:45:43;;;;;;;11.40;6.27;;;5.10;99.90;;;;;;4914010;28;20463;-70
2020/12/08 02:48:09;;;;;;;12.17;6.50;;;5.10;99.90;;;;;;4909096;28;20337;-71
2020/12/08 02:50:36;;;;;;;10.07;6.10;;;5.10;99.90;;;;;;4916072;29;20468;-71
2020/12/08 02:53:03;;;;;;;10.83;5.87;;;5.10;99.90;;;;;;4920821;29;20670;-70
2020/12/08 02:55:29;;;;;;;8.30;5.60;;;5.10;99.90;;;;;;4913499;29;20538;-71
2020/12/08 02:57:55;;;;;;;8.83;5.40;;;5.10;99.90;;;;;;4903702;29;20565;-71
2020/12/08 03:00:21;;;;;;;9.80;6.40;;;5.10;99.90;;;;;;4888230;29;20626;-70
2020/12/08 03:02:47;;;;;;;10.73;6.27;;;5.10;99.90;;;;;;4921781;29;20310;-72
2020/12/08 03:05:12;;;;;;;11.17;6.10;;;5.10;99.90;;;;;;4918218;29;20234;-71
2020/12/08 03:07:39;;;;;;;9.43;6.77;;;5.00;99.90;;;;;;4885066;29;20468;-71
2020/12/08 03:10:08;;;;;;;8.43;4.93;;;5.00;99.90;;;;;;4926238;29;20495;-70
2020/12/08 03:12:36;;;;;;;14.43;6.67;;;5.00;99.90;;;;;;4890339;29;20463;-71
2020/12/08 03:15:07;;;;;;;10.10;6.30;;;5.00;99.90;;;;;;4916345;29;20515;-70
2020/12/08 03:17:41;;;;;;;9.93;5.33;;;5.00;99.90;;;;;;4923997;29;20499;-70
2020/12/08 03:20:10;;;;;;;11.57;5.50;;;5.00;99.90;;;;;;4920556;29;20509;-71
2020/12/08 03:23:00;;;;;;;9.60;5.77;;;5.00;99.90;;;;;;4937091;29;20551;-71
2020/12/08 03:25:26;;;;;;;13.03;6.13;;;4.90;99.90;;;;;;4921003;29;20455;-70
2020/12/08 03:27:52;;;;;;;11.17;5.93;;;5.00;99.90;;;;;;4905047;28;20466;-71
2020/12/08 03:30:19;;;;;;;10.73;6.23;;;4.90;99.90;;;;;;4918429;29;20472;-70
2020/12/08 03:32:49;;;;;;;14.37;6.63;;;4.90;99.90;;;;;;4918323;29;20459;-70
2020/12/08 03:35:18;;;;;;;7.30;5.20;;;4.90;99.90;;;;;;4921442;29;20466;-69
2020/12/08 03:37:44;;;;;;;8.07;4.93;;;4.90;99.90;;;;;;4905645;29;20467;-69
2020/12/08 03:40:12;;;;;;;9.43;5.50;;;4.80;99.90;;;;;;4904962;29;20333;-69
2020/12/08 03:42:38;;;;;;;8.03;5.27;;;4.80;99.90;;;;;;4911726;29;20971;-69
2020/12/08 03:45:05;;;;;;;10.43;5.70;;;4.70;99.90;;;;;;4901297;29;20686;-70
2020/12/08 03:47:41;;;;;;;9.80;5.50;;;4.80;99.90;;;;;;4903397;29;20467;-70
2020/12/08 03:50:10;;;;;;;10.07;5.03;;;4.70;99.90;;;;;;4902007;28;20550;-72
2020/12/08 03:52:36;;;;;;;8.23;5.77;;;4.70;99.90;;;;;;4902116;29;20596;-72
2020/12/08 03:55:04;;;;;;;8.93;4.73;;;4.70;99.90;;;;;;4905165;29;20463;-71
2020/12/08 03:57:30;;;;;;;8.30;5.20;;;4.70;99.90;;;;;;4904742;29;20460;-72
2020/12/08 03:59:56;;;;;;;10.50;5.73;;;4.60;99.90;;;;;;4900445;29;20472;-71
2020/12/08 04:02:22;;;;;;;10.07;5.27;;;4.60;99.90;;;;;;4920868;29;20479;-70
2020/12/08 04:04:50;;;;;;;11.47;5.03;;;4.50;99.90;;;;;;4918924;29;20587;-71
2020/12/08 04:07:17;;;;;;;8.97;4.53;;;4.50;99.90;;;;;;4888153;29;20839;-71
2020/12/08 04:09:45;;;;;;;11.23;5.60;;;4.40;99.90;;;;;;4902760;29;21000;-71
2020/12/08 04:12:11;;;;;;;7.63;4.90;;;4.40;99.90;;;;;;4915638;29;20444;-72
2020/12/08 04:14:37;;;;;;;7.50;4.97;;;4.30;99.90;;;;;;4904794;29;20227;-72
2020/12/08 04:17:03;;;;;;;9.30;5.30;;;4.30;99.90;;;;;;4919657;29;20641;-69
2020/12/08 04:19:28;;;;;;;10.80;5.50;;;4.30;99.90;;;;;;4888627;29;20216;-70
2020/12/08 04:22:01;;;;;;;9.70;6.37;;;4.30;99.90;;;;;;4902196;29;20255;-70
2020/12/08 04:24:38;;;;;;;7.80;4.37;;;4.40;99.90;;;;;;4921598;29;20599;-70
2020/12/08 04:27:04;;;;;;;10.40;5.20;;;4.40;99.90;;;;;;4903781;29;20456;-70
2020/12/08 04:29:38;;;;;;;9.50;5.03;;;4.40;99.90;;;;;;4920399;29;20244;-69
2020/12/08 04:32:04;;;;;;;11.73;6.07;;;4.50;99.90;;;;;;4900658;29;20555;-69
2020/12/08 04:34:31;;;;;;;14.70;6.47;;;4.40;99.90;;;;;;4920892;29;20555;-70
2020/12/08 04:37:00;;;;;;;11.67;5.80;;;4.40;99.90;;;;;;4935308;28;20248;-71
2020/12/08 04:39:27;;;;;;;12.00;6.00;;;4.40;99.90;;;;;;4935467;28;20815;-70
2020/12/08 04:41:56;;;;;;;12.30;5.90;;;4.40;99.90;;;;;;4935680;29;20526;-69
2020/12/08 04:44:22;;;;;;;9.10;5.03;;;4.40;99.90;;;;;;4918319;29;20463;-69
2020/12/08 04:46:54;;;;;;;10.43;4.83;;;4.40;99.90;;;;;;4885691;29;20460;-69
2020/12/08 04:49:22;;;;;;;9.87;5.97;;;4.40;99.90;;;;;;4916995;29;20245;-69
2020/12/08 04:51:48;;;;;;;10.07;5.50;;;4.40;99.90;;;;;;4919321;29;20518;-69
2020/12/08 04:54:14;;;;;;;11.40;5.97;;;4.40;99.90;;;;;;4919563;29;20466;-69
2020/12/08 04:56:44;;;;;;;8.73;4.83;;;4.40;99.90;;;;;;4914434;29;20995;-70
2020/12/08 04:59:22;;;;;;;10.13;5.20;;;4.40;99.90;;;;;;4899864;29;20476;-69
2020/12/08 05:01:48;;;;;;;15.40;7.03;;;4.40;99.90;;;;;;4918201;29;20478;-69
2020/12/08 05:04:23;;;;;;;9.70;5.80;;;4.40;99.90;;;;;;4915886;29;20461;-68
2020/12/08 05:07:07;;;;;;;11.13;5.87;;;4.40;99.90;;;;;;4930367;29;20463;-71
2020/12/08 05:09:44;;;;;;;11.87;6.90;;;4.40;99.90;;;;;;4913826;29;20519;-70
2020/12/08 05:16:28;;;;;;;12.00;5.20;;;4.30;99.90;;;;;;4942119;28;20878;-72
2020/12/08 05:19:05;;;;;;;10.97;5.30;;;4.30;99.90;;;;;;4952217;28;20474;-69
2020/12/08 05:21:30;;;;;;;9.40;5.13;;;4.30;99.90;;;;;;4905139;29;20558;-68
2020/12/08 05:23:56;;;;;;;13.57;6.23;;;4.20;99.90;;;;;;4884840;29;20544;-69
2020/12/08 05:26:22;;;;;;;11.00;6.33;;;4.20;99.90;;;;;;4884732;29;20244;-69
2020/12/08 05:29:00;;;;;;;13.00;6.60;;;4.20;99.90;;;;;;4900757;29;20228;-71
2020/12/08 05:31:27;;;;;;;13.70;7.07;;;4.20;99.90;;;;;;4933912;29;20227;-69
2020/12/08 05:33:59;;;;;;;10.67;5.70;;;4.10;99.90;;;;;;4918708;29;20461;-69
2020/12/08 05:36:27;;;;;;;10.77;5.90;;;4.10;99.90;;;;;;4919050;29;20553;-68
2020/12/08 05:38:59;;;;;;;8.70;5.70;;;4.10;99.90;;;;;;4934112;29;20468;-68
2020/12/08 05:41:29;;;;;;;10.73;6.57;;;4.10;99.90;;;;;;4934042;29;20518;-70
2020/12/08 05:44:02;;;;;;;11.47;5.90;;;4.20;99.90;;;;;;4934917;29;20538;-68
2020/12/08 05:46:38;;;;;;;10.90;5.33;;;4.20;99.90;;;;;;4934825;29;20490;-69
2020/12/08 05:49:04;;;;;;;12.47;6.03;;;4.20;99.90;;;;;;4934343;28;20485;-68
2020/12/08 05:51:31;;;;;;;7.97;5.50;;;4.20;99.90;;;;;;4918195;29;20464;-70
2020/12/08 05:53:56;;;;;;;13.87;6.70;;;4.20;99.90;;;;;;4918570;29;20251;-68
2020/12/08 05:56:22;;;;;;;11.87;6.50;;;4.20;99.90;;;;;;4919115;29;20479;-69
2020/12/08 05:58:54;;;;;;;7.53;4.90;;;4.20;99.90;;;;;;4904488;29;20231;-68
2020/12/08 06:01:20;;;;;;;12.20;5.83;;;4.20;99.90;;;;;;4945979;28;20230;-70
2020/12/08 06:03:55;;;;;;;14.80;5.77;;;4.20;99.90;;;;;;4887386;29;20452;-68
2020/12/08 06:06:21;;;;;;;16.53;6.20;;;4.20;99.90;;;;;;4912828;29;20224;-68
2020/12/08 06:08:48;;;;;;;14.07;7.00;;;4.30;99.90;;;;;;4898285;29;20514;-69
2020/12/08 06:11:29;;;;;;;13.87;7.07;;;4.30;99.90;;;;;;4915637;29;20255;-69
2020/12/08 06:13:54;;;;;;;9.13;5.37;;;4.20;99.90;;;;;;4918481;29;20462;-69
2020/12/08 06:16:22;;;;;;;11.33;6.27;;;4.20;99.90;;;;;;4915328;29;20454;-69
2020/12/08 06:18:50;;;;;;;14.23;6.80;;;4.30;99.90;;;;;;4900037;29;20240;-69
2020/12/08 06:21:27;;;;;;;11.20;6.03;;;4.30;99.90;;;;;;4914695;29;20467;-69
2020/12/08 06:23:54;;;;;;;13.03;6.03;;;4.30;99.90;;;;;;4900240;29;20465;-69
2020/12/08 06:26:22;;;;;;;11.77;6.67;;;4.30;99.90;;;;;;4905995;29;20452;-69
2020/12/08 06:28:47;;;;;;;10.53;5.57;;;4.20;99.90;;;;;;4903025;29;20460;-69
2020/12/08 06:31:13;;;;;;;12.17;6.50;;;4.30;99.90;;;;;;4917524;29;20456;-70
2020/12/08 06:34:05;;;;;;;11.97;6.20;;;4.30;99.90;;;;;;4903281;29;20231;-69
2020/12/08 06:36:31;;;;;;;11.10;6.33;;;4.30;99.90;;;;;;4914026;29;20226;-69
2020/12/08 06:39:01;;;;;;;11.97;6.57;;;4.30;99.90;;;;;;4918433;29;21183;-69
2020/12/08 06:41:38;;;;;;;10.97;6.37;;;4.30;99.90;;;;;;4902532;29;20278;-69
2020/12/08 06:44:05;;;;;;;13.30;6.60;;;4.30;99.90;;;;;;4895354;29;20463;-69
2020/12/08 06:46:31;;;;;;;15.43;7.67;;;4.30;99.90;;;;;;4917998;28;20506;-69
2020/12/08 06:49:07;;;;;;;9.83;6.47;;;4.30;99.90;;;;;;4934111;28;20533;-69
2020/12/08 06:51:34;;;;;;;14.93;7.77;;;4.30;99.90;;;;;;4954263;28;20474;-69
2020/12/08 06:54:12;;;;;;;13.00;6.97;;;4.30;99.90;;;;;;4954732;28;20538;-69
2020/12/08 06:56:37;;;;;;;15.97;6.57;;;4.30;99.90;;;;;;4937618;28;20465;-69
2020/12/08 06:59:03;;;;;;;15.47;8.03;;;4.30;99.90;;;;;;4904800;29;20483;-69
2020/12/08 07:01:29;;;;;;;24.23;8.30;;;4.30;99.90;;;;;;4917600;29;20256;-69
2020/12/08 07:03:55;;;;;;;15.77;8.07;;;4.30;99.90;;;;;;4918411;29;20216;-70
2020/12/08 07:06:21;;;;;;;16.30;8.10;;;4.30;99.90;;;;;;4900241;29;20239;-69
2020/12/08 07:08:48;;;;;;;17.17;8.13;;;4.30;99.90;;;;;;4901352;29;20460;-70
2020/12/08 07:11:21;;;;;;;14.43;7.20;;;4.20;99.90;;;;;;4907998;29;20251;-69
2020/12/08 07:14:00;;;;;;;17.07;8.70;;;4.30;99.90;;;;;;4921287;29;20463;-69
2020/12/08 07:16:27;;;;;;;14.57;7.60;;;4.30;99.90;;;;;;4918218;29;20456;-69
2020/12/08 07:18:57;;;;;;;16.90;8.30;;;4.30;99.90;;;;;;4918203;29;20515;-68
2020/12/08 07:21:24;;;;;;;15.07;7.93;;;4.30;99.90;;;;;;4902088;29;20540;-69
2020/12/08 07:23:54;;;;;;;14.80;8.10;;;4.30;99.90;;;;;;4918010;29;20489;-68
2020/12/08 07:26:28;;;;;;;17.53;7.20;;;4.30;99.90;;;;;;4918639;29;20464;-69
2020/12/08 07:28:56;;;;;;;14.60;7.03;;;4.30;99.90;;;;;;4917711;29;20476;-69
2020/12/08 07:31:29;;;;;;;13.93;6.60;;;4.30;99.90;;;;;;4920639;29;21028;-69
2020/12/08 07:33:56;;;;;;;15.57;6.80;;;4.30;99.90;;;;;;4920731;29;20488;-68
2020/12/08 07:36:30;;;;;;;14.90;7.67;;;4.30;99.90;;;;;;4921150;29;20455;-69
2020/12/08 07:38:58;;;;;;;15.20;7.80;;;4.30;99.90;;;;;;4936517;28;20461;-69
2020/12/08 07:41:26;;;;;;;17.27;8.77;;;4.30;99.90;;;;;;4936413;29;20983;-69
2020/12/08 07:43:53;;;;;;;15.67;7.47;;;4.30;99.90;;;;;;4936234;29;20472;-69
2020/12/08 07:46:26;;;;;;;16.53;8.40;;;4.30;99.90;;;;;;4920923;29;20511;-68
2020/12/08 07:49:09;;;;;;;13.40;8.13;;;4.30;99.90;;;;;;4919909;29;20455;-68
2020/12/08 07:51:36;;;;;;;10.37;6.60;;;4.30;99.90;;;;;;4919773;29;21022;-68
2020/12/08 07:54:35;;;;;;;18.10;8.27;;;4.30;99.90;;;;;;4919141;29;20461;-69
2020/12/08 07:57:00;;;;;;;12.50;5.67;;;4.30;99.90;;;;;;4903676;28;20460;-69
2020/12/08 07:59:26;;;;;;;15.57;7.27;;;4.30;99.90;;;;;;4920403;29;20542;-72
2020/12/08 08:01:52;;;;;;;16.20;7.87;;;4.30;99.90;;;;;;4878013;29;20663;-68
2020/12/08 08:04:18;;;;;;;9.30;5.40;;;4.30;99.90;;;;;;4912096;29;20842;-68
2020/12/08 08:06:44;;;;;;;17.37;7.90;;;4.30;99.90;;;;;;4917266;29;20627;-68
2020/12/08 08:09:10;;;;;;;12.13;6.60;;;4.30;99.90;;;;;;4917549;29;20471;-68
2020/12/08 08:11:36;;;;;;;11.10;6.20;;;4.30;99.90;;;;;;4898553;29;20480;-68
2020/12/08 08:14:09;;;;;;;13.83;7.10;;;4.30;99.90;;;;;;4899241;29;20235;-68
2020/12/08 08:16:34;;;;;;;11.27;6.30;;;4.30;99.90;;;;;;4919539;28;20545;-68
2020/12/08 08:19:01;;;;;;;10.80;6.97;;;4.30;99.90;;;;;;4888435;29;20547;-69
2020/12/08 08:21:27;;;;;;;12.50;6.50;;;4.30;99.90;;;;;;4952680;28;20236;-71
2020/12/08 08:23:53;;;;;;;16.27;7.27;;;4.30;99.90;;;;;;4884595;29;20494;-69
2020/12/08 08:26:18;;;;;;;14.90;6.67;;;4.30;99.90;;;;;;4885227;29;20227;-68
2020/12/08 08:28:44;;;;;;;14.40;7.60;;;4.30;99.90;;;;;;4888463;29;20715;-68
2020/12/08 08:31:10;;;;;;;11.60;6.47;;;4.30;99.90;;;;;;4919381;28;20583;-68
2020/12/08 08:33:35;;;;;;;12.47;6.50;;;4.30;99.90;;;;;;4920368;29;20232;-69
2020/12/08 08:36:01;;;;;;;19.30;8.30;;;4.30;99.90;;;;;;4916020;29;20230;-70
2020/12/08 08:38:27;;;;;;;9.60;6.43;;;4.30;99.90;;;;;;4918635;29;20309;-69
2020/12/08 08:40:58;;;;;;;11.97;6.90;;;4.30;99.90;;;;;;4901798;29;20626;-69
2020/12/08 08:43:28;;;;;;;12.40;6.30;;;4.30;99.90;;;;;;4923153;28;20234;-69
2020/12/08 08:45:54;;;;;;;14.80;7.10;;;4.30;99.90;;;;;;4920652;28;20538;-68
2020/12/08 08:48:21;;;;;;;13.90;7.40;;;4.30;99.90;;;;;;4919441;29;20547;-69
2020/12/08 08:50:48;;;;;;;17.00;7.47;;;4.30;99.90;;;;;;4918936;29;21094;-68
2020/12/08 08:53:14;;;;;;;13.83;7.80;;;4.30;99.90;;;;;;4919538;29;20525;-68
2020/12/08 08:55:39;;;;;;;12.80;6.83;;;4.30;99.90;;;;;;4919147;29;20463;-68
2020/12/08 08:58:05;;;;;;;15.37;8.07;;;4.30;99.90;;;;;;4884976;29;20277;-69
2020/12/08 09:00:30;;;;;;;17.53;8.57;;;4.30;99.90;;;;;;4886214;29;20266;-69
2020/12/08 09:02:58;;;;;;;13.47;7.60;;;4.30;99.90;;;;;;4901460;29;20237;-69
2020/12/08 09:05:25;;;;;;;9.77;6.33;;;4.30;99.90;;;;;;4916803;28;20247;-69
2020/12/08 09:07:51;;;;;;;15.20;7.10;;;4.30;99.90;;;;;;4914264;29;20455;-69
2020/12/08 09:10:16;;;;;;;15.70;7.53;;;4.30;99.90;;;;;;4915851;28;20541;-70
2020/12/08 09:12:42;;;;;;;12.67;6.77;;;4.30;99.90;;;;;;4894569;29;20460;-68
2020/12/08 09:15:09;;;;;;;14.33;7.60;;;4.30;99.90;;;;;;4887851;29;20287;-69
2020/12/08 09:17:35;;;;;;;17.00;7.80;;;4.40;99.90;;;;;;4884947;29;20624;-69
2020/12/08 09:20:00;;;;;;;17.63;6.67;;;4.40;99.90;;;;;;4885378;28;20539;-69
2020/12/08 09:22:26;;;;;;;12.73;7.80;;;4.40;99.90;;;;;;4917989;29;20462;-69
2020/12/08 09:24:52;;;;;;;14.50;7.80;;;4.40;99.90;;;;;;4902793;29;20696;-69
2020/12/08 09:27:18;;;;;;;14.73;8.23;;;4.40;99.90;;;;;;4888597;29;20234;-69
2020/12/08 09:29:44;;;;;;;13.90;7.33;;;4.40;99.90;;;;;;4918129;28;20306;-69
2020/12/08 09:32:10;;;;;;;10.87;6.40;;;4.40;99.90;;;;;;4902561;29;20447;-69
2020/12/08 09:34:36;;;;;;;10.50;6.63;;;4.40;99.90;;;;;;4918694;29;20580;-69
2020/12/08 09:37:02;;;;;;;11.97;6.80;;;4.40;99.90;;;;;;4903499;29;20448;-69
2020/12/08 09:39:29;;;;;;;10.83;6.63;;;4.50;99.90;;;;;;4902871;29;20470;-69
2020/12/08 09:41:55;;;;;;;15.00;7.03;;;4.50;99.90;;;;;;4899816;28;20549;-69
2020/12/08 09:44:21;;;;;;;12.00;6.70;;;4.50;99.90;;;;;;4924687;28;20469;-69
2020/12/08 09:46:46;;;;;;;12.90;6.63;;;4.50;99.90;;;;;;4909844;29;20544;-69
2020/12/08 09:49:13;;;;;;;12.30;5.77;;;4.50;99.90;;;;;;4917580;29;20472;-69
2020/12/08 09:51:40;;;;;;;11.47;5.63;;;4.50;99.90;;;;;;4934234;29;20696;-70
2020/12/08 09:54:06;;;;;;;15.03;7.07;;;4.50;99.90;;;;;;4913751;29;20456;-70
2020/12/08 09:56:32;;;;;;;11.80;6.30;;;4.50;99.90;;;;;;4902630;29;20466;-71
2020/12/08 09:58:58;;;;;;;10.93;6.17;;;4.50;99.90;;;;;;4901397;29;20290;-71
2020/12/08 10:01:32;;;;;;;12.60;6.37;;;4.50;99.90;;;;;;4899874;29;20227;-71
2020/12/08 10:03:58;;;;;;;9.97;6.40;;;4.50;99.90;;;;;;4914675;29;20455;-70
2020/12/08 10:06:24;;;;;;;12.10;6.33;;;4.50;99.90;;;;;;4915482;29;20897;-71
2020/12/08 10:08:54;;;;;;;12.30;6.27;;;4.50;99.90;;;;;;4930767;28;20486;-71
2020/12/08 10:11:22;;;;;;;10.13;5.93;;;4.50;99.90;;;;;;4910825;29;20460;-70
2020/12/08 10:13:48;;;;;;;13.17;6.43;;;4.50;99.90;;;;;;4912395;29;20485;-71
2020/12/08 10:16:21;;;;;;;13.27;7.20;;;4.50;99.90;;;;;;4886852;29;20972;-69
2020/12/08 10:18:48;;;;;;;8.80;5.20;;;4.50;99.90;;;;;;4915261;29;20452;-69
2020/12/08 10:21:18;;;;;;;10.53;6.00;;;4.50;99.90;;;;;;4915749;29;20462;-71
2020/12/08 10:23:43;;;;;;;12.10;6.03;;;4.50;99.90;;;;;;4902617;28;20531;-70
2020/12/08 10:26:10;;;;;;;11.40;6.63;;;4.50;99.90;;;;;;4887285;29;20516;-69
2020/12/08 10:28:36;;;;;;;10.40;6.30;;;4.60;99.90;;;;;;4937772;29;20227;-69
2020/12/08 10:31:02;;;;;;;9.10;6.00;;;4.60;99.90;;;;;;4904034;29;20484;-69
2020/12/08 10:33:28;;;;;;;12.33;7.00;;;4.50;99.90;;;;;;4906354;29;20470;-69
2020/12/08 10:35:53;;;;;;;22.23;8.47;;;4.60;99.90;;;;;;4921175;28;20249;-69
2020/12/08 10:38:19;;;;;;;15.20;6.83;;;4.60;99.90;;;;;;4905953;29;20223;-69
2020/12/08 10:40:45;;;;;;;12.27;6.73;;;4.60;99.90;;;;;;4919288;29;20679;-68
2020/12/08 10:43:10;;;;;;;12.80;6.80;;;4.50;99.90;;;;;;4923674;29;20227;-68
2020/12/08 10:45:36;;;;;;;13.33;6.37;;;4.60;99.90;;;;;;4921768;29;20232;-69
2020/12/08 10:48:02;;;;;;;13.27;7.67;;;4.50;99.90;;;;;;4916284;29;20307;-69
2020/12/08 10:50:27;;;;;;;16.97;7.30;;;4.50;99.90;;;;;;4917839;29;20303;-69
2020/12/08 10:52:53;;;;;;;15.63;7.30;;;4.50;99.90;;;;;;4906856;29;20315;-71
2020/12/08 10:55:19;;;;;;;9.57;5.77;;;4.50;99.90;;;;;;4912608;29;20247;-70
2020/12/08 10:57:45;;;;;;;12.30;7.07;;;4.50;99.90;;;;;;4894400;29;20269;-71
2020/12/08 11:00:10;;;;;;;10.60;6.60;;;4.50;99.90;;;;;;4940693;28;20228;-70
2020/12/08 11:02:36;;;;;;;14.47;8.53;;;4.60;99.90;;;;;;4942310;28;20319;-70
2020/12/08 11:05:04;;;;;;;13.03;8.27;;;4.60;99.90;;;;;;4923737;28;20227;-70
2020/12/08 11:07:31;;;;;;;16.30;10.37;;;4.60;99.90;;;;;;4922241;28;20212;-70
2020/12/08 11:09:56;;;;;;;14.87;7.47;;;4.60;99.90;;;;;;4921430;28;20472;-71
2020/12/08 11:12:22;;;;;;;20.07;10.00;;;4.70;99.90;;;;;;4896126;29;20514;-70
2020/12/08 11:14:48;;;;;;;17.37;9.90;;;4.70;99.90;;;;;;4941716;29;20232;-70
2020/12/08 11:17:13;;;;;;;17.80;10.23;;;4.70;99.90;;;;;;4909285;29;20294;-70
2020/12/08 11:19:39;;;;;;;16.03;9.20;;;4.70;99.90;;;;;;4908674;29;20232;-71
2020/12/08 11:22:08;;;;;;;12.73;7.63;;;4.70;99.90;;;;;;4910229;28;20252;-71
2020/12/08 11:24:34;;;;;;;13.87;9.50;;;4.70;99.90;;;;;;4924703;29;20247;-70
2020/12/08 11:27:00;;;;;;;14.53;10.03;;;4.70;99.90;;;;;;4925872;28;20460;-71
2020/12/08 11:29:25;;;;;;;24.93;13.97;;;4.80;99.90;;;;;;4878177;29;20371;-70
2020/12/08 11:31:52;;;;;;;15.67;11.03;;;4.80;99.90;;;;;;4901508;29;20682;-70
2020/12/08 11:34:19;;;;;;;17.60;11.77;;;4.80;99.90;;;;;;4901871;29;20685;-69
2020/12/08 11:36:45;;;;;;;14.23;10.37;;;4.80;99.90;;;;;;4917751;29;20451;-69
2020/12/08 11:39:11;;;;;;;14.90;8.23;;;4.80;99.90;;;;;;4920506;28;20444;-69
2020/12/08 11:41:41;;;;;;;16.77;8.20;;;4.80;99.90;;;;;;4921396;29;20460;-69
2020/12/08 11:44:09;;;;;;;13.97;8.20;;;4.80;99.90;;;;;;4920598;28;20482;-70
2020/12/08 11:46:35;;;;;;;12.47;7.00;;;4.80;99.90;;;;;;4936469;29;20467;-69
2020/12/08 11:49:00;;;;;;;17.60;9.73;;;4.90;99.90;;;;;;4918327;29;20473;-69
2020/12/08 11:51:26;;;;;;;17.20;9.37;;;4.90;99.90;;;;;;4899046;29;20227;-69
2020/12/08 11:53:52;;;;;;;21.33;11.93;;;4.90;99.90;;;;;;4902497;29;20211;-70
2020/12/08 11:56:28;;;;;;;21.77;11.23;;;5.00;99.90;;;;;;4902721;29;20485;-70
2020/12/08 11:58:55;;;;;;;18.50;11.30;;;5.00;99.90;;;;;;4919240;29;20230;-70
2020/12/08 12:01:21;;;;;;;16.00;10.07;;;5.00;99.90;;;;;;4916654;28;20520;-69
2020/12/08 12:03:47;;;;;;;15.37;9.83;;;5.00;99.90;;;;;;4901693;29;20483;-69
2020/12/08 12:06:13;;;;;;;18.37;9.13;;;5.00;99.90;;;;;;4884302;29;20226;-69
2020/12/08 12:08:40;;;;;;;13.07;7.70;;;5.00;99.90;;;;;;4918936;29;20734;-69
2020/12/08 12:11:06;;;;;;;31.83;15.20;;;5.00;99.90;;;;;;4917450;28;20892;-69
2020/12/08 12:13:32;;;;;;;25.83;14.97;;;5.00;99.90;;;;;;4898036;29;20471;-71
2020/12/08 12:15:58;;;;;;;36.47;16.13;;;5.00;99.90;;;;;;4900715;29;20476;-69
2020/12/08 12:18:23;;;;;;;29.20;15.27;;;5.00;99.90;;;;;;4901427;29;20225;-69
2020/12/08 12:20:49;;;;;;;46.27;22.67;;;5.00;99.90;;;;;;4906239;29;20223;-69
2020/12/08 12:23:15;;;;;;;61.90;33.70;;;5.00;99.90;;;;;;4884733;29;20308;-69
2020/12/08 12:25:40;;;;;;;81.47;41.50;;;5.10;99.90;;;;;;4917280;29;20228;-69
2020/12/08 12:28:06;;;;;;;50.07;29.03;;;5.10;99.90;;;;;;4900539;29;20246;-69
2020/12/08 12:30:32;;;;;;;57.23;31.83;;;5.10;99.90;;;;;;4915528;29;20303;-69
2020/12/08 12:32:57;;;;;;;63.97;34.77;;;5.20;99.90;;;;;;4916107;29;20644;-69
2020/12/08 12:35:23;;;;;;;67.90;32.97;;;5.20;99.90;;;;;;4902378;29;20599;-70
2020/12/08 12:37:49;;;;;;;61.10;28.80;;;5.20;99.90;;;;;;4919958;29;20235;-71
2020/12/08 12:40:14;;;;;;;78.13;33.53;;;5.20;99.90;;;;;;4914907;29;20315;-69
2020/12/08 12:42:40;;;;;;;91.33;35.77;;;5.20;99.90;;;;;;4901133;29;20232;-69
2020/12/08 12:45:06;;;;;;;88.90;33.97;;;5.20;99.90;;;;;;4912235;28;20228;-69
2020/12/08 12:47:32;;;;;;;81.87;33.23;;;5.20;99.90;;;;;;4919900;29;20227;-69
2020/12/08 12:49:57;;;;;;;70.23;30.23;;;5.20;99.90;;;;;;4918384;28;20303;-69
2020/12/08 12:52:23;;;;;;;61.57;28.97;;;5.20;99.90;;;;;;4903994;29;20236;-69
2020/12/08 12:54:48;;;;;;;85.63;34.30;;;5.20;99.90;;;;;;4935076;29;20851;-69